1960 OPHELIA (1960327N09161)


On this page: IBTrACS data - Map and Plots - Positions - Intensities - Original source data

Summary

Start Nov 21
End Dec 8
Basins EP
WP
LMI 146 kt
Sources jtwc_wp
tokyo
cma
td9636
td9635
ds824_wp
In WMO? Yes
Previous storm 1960 13B (NI)
Previous in basin 1960 MISSING (WP)
Concurrent storms 1960 15A (NI)
1960 OPHELIA (WP)
1960 12B (NI)
1960 MISSING (WP)
1961 05S (SI)
1961 04S (SI)
Next in basin 1960 MISSING (WP)
Next storm 1960 12B (NI)

top of page IBTrACS Data: File Access

No storm imagery available

top of page Plots:

Map of storm track will not appear if FTP is down
Time series of cyclone Maximum Sustained Wind will not appear if FTP is down
Time series of cyclone Minimum Central Pressure will not appear if FTP is down

top of page Track Data:Position

jtwc_wp tokyo cma td9636 td9635 ds824_wp
Date Lat Lon Lat Lon Lat Lon Lat Lon Lat Lon Lat Lon
1960-11-21 12:00:00 9.2 160.5 9.2 160.5 9.2 160.5 9.2 160.5
1960-11-21 18:00:00 9.4 159.5 9.5 159.4 9.5 159.5 9.4 159.5
1960-11-22 00:00:00 9.5 158.7 9.6 158.6 9.6 158.6 9.5 158.7
1960-11-22 06:00:00 9.4 158.1 9.5 158.2 9.4 158.2 9.4 158.1
1960-11-22 12:00:00 9.2 158.2 9.3 158.2 9.3 158.2 9.2 158.2
1960-11-22 18:00:00 8.9 158.7 9.0 158.8 9.0 158.8 8.9 158.7
1960-11-23 00:00:00 8.6 159.6 8.5 159.6 8.5 159.6 8.6 159.6
1960-11-23 06:00:00 8.2 160.6 8.0 160.5 8.3 160.6 8.2 160.6
1960-11-23 12:00:00 7.5 161.1 7.5 161.0 7.5 161.0 7.5 161.1
1960-11-23 18:00:00 7.1 160.6 7.1 160.6 7.2 160.5 7.1 160.6
1960-11-24 00:00:00 7.0 159.5 7.0 159.4 7.0 159.4 7.0 159.5
1960-11-24 06:00:00 7.0 157.9 7.2 157.8 7.1 158.0 7.0 157.9
1960-11-24 12:00:00 7.5 156.0 7.5 156.0 7.5 156.0 7.5 156.0
1960-11-24 18:00:00 7.4 154.7 7.5 154.6 7.4 154.7 7.4 154.7
1960-11-25 00:00:00 7.4 153.4 7.5 152.0 7.5 152.0 7.4 153.4 7.4 153.4 7.4 153.4
1960-11-25 06:00:00 7.5 152.3 7.7 151.6 7.7 151.6 7.5 152.3 7.5 152.3 7.5 152.3
1960-11-25 12:00:00 7.6 151.3 8.1 151.3 8.1 151.3 7.6 151.3 7.6 151.3 7.6 151.3
1960-11-25 18:00:00 7.6 150.2 8.5 151.0 8.5 151.0 7.5 150.4 7.6 150.2 7.6 150.2
1960-11-26 00:00:00 7.5 149.7 8.9 150.6 8.8 150.7 7.5 149.7 7.5 149.7 7.5 149.7
1960-11-26 06:00:00 7.8 149.3 9.2 150.2 9.2 150.2 7.7 149.3 7.8 149.3 7.8 149.3
1960-11-26 12:00:00 8.2 149.0 9.5 149.8 9.5 149.8 8.2 149.0 8.2 149.0 8.2 149.0
1960-11-26 18:00:00 9.1 148.7 9.7 149.4 9.7 149.4 9.2 148.6 9.1 148.7 9.1 148.7
1960-11-27 00:00:00 10.0 148.3 10.0 148.8 10.0 148.8 10.0 148.3 10.0 148.3 10.0 148.3
1960-11-27 06:00:00 9.9 148.2 10.0 148.3 10.0 148.3 10.1 148.1 9.9 148.2 9.9 148.2
1960-11-27 12:00:00 9.8 148.0 9.8 148.0 9.9 148.0 9.8 148.0 9.8 148.0 9.8 148.0
jtwc_wp tokyo cma td9636 td9635 ds824_wp
1960-11-27 18:00:00 9.7 147.8 9.7 147.9 9.7 147.9 9.7 147.8 9.7 147.8 9.7 147.8
1960-11-28 00:00:00 9.5 147.6 9.6 147.8 9.6 147.7 9.5 147.6 9.5 147.6 9.5 147.6
1960-11-28 06:00:00 9.4 147.5 9.4 147.6 9.4 147.6 9.4 147.4 9.4 147.5 9.4 147.5
1960-11-28 12:00:00 9.3 147.2 9.2 147.3 9.2 147.3 9.3 147.2 9.3 147.2 9.3 147.2
1960-11-28 18:00:00 9.2 147.0 9.2 147.0 9.2 147.0 9.1 147.0 9.2 147.0 9.2 147.0
1960-11-29 00:00:00 9.1 146.5 9.3 146.4 9.3 146.4 9.1 146.5 9.1 146.5 9.1 146.5
1960-11-29 06:00:00 9.6 145.4 9.8 145.5 9.8 145.5 9.8 145.5 9.6 145.4 9.6 145.4
1960-11-29 12:00:00 10.4 144.0 10.1 143.8 10.1 144.1 10.4 144.0 10.4 144.0 10.4 144.0
1960-11-29 18:00:00 10.4 142.2 10.3 142.3 10.3 142.4 10.3 142.3 10.4 142.2 10.4 142.2
1960-11-30 00:00:00 10.1 140.5 10.1 140.8 10.1 140.8 10.1 140.5 10.1 140.5 10.1 140.5
1960-11-30 06:00:00 10.3 139.0 10.4 139.4 10.4 139.4 10.5 138.9 10.3 139.0 10.3 139.0
1960-11-30 12:00:00 11.1 137.4 11.0 137.7 10.9 137.9 11.1 137.4 11.1 137.4 11.1 137.4
1960-11-30 18:00:00 11.6 136.0 11.3 136.1 11.3 136.1 11.6 136.0 11.6 136.0 11.6 136.0
1960-12-01 00:00:00 12.0 134.8 12.0 134.8 12.1 134.7 12.0 134.8 12.0 134.8 12.0 134.8
1960-12-01 06:00:00 12.3 133.6 12.5 133.8 12.5 133.9 12.4 133.7 12.3 133.6 12.3 133.6
1960-12-01 12:00:00 12.8 132.9 12.9 133.3 12.9 133.3 12.8 132.9 12.8 132.9 12.8 132.9
1960-12-01 18:00:00 13.5 132.4 13.5 132.8 13.5 132.9 13.5 132.5 13.5 132.4 13.5 132.4
1960-12-02 00:00:00 14.3 132.4 14.2 132.5 14.2 132.6 14.3 132.4 14.3 132.4 14.3 132.4
1960-12-02 06:00:00 15.1 132.5 14.9 132.7 14.9 132.6 15.0 132.5 15.1 132.5 15.1 132.5
1960-12-02 12:00:00 15.7 132.7 15.5 133.0 15.5 133.2 15.7 132.7 15.7 132.7 15.7 132.7
1960-12-02 18:00:00 16.2 132.9 16.5 133.2 16.5 133.2 16.4 132.9 16.2 132.9 16.2 132.9
1960-12-03 00:00:00 17.1 133.0 17.2 133.2 17.2 133.2 17.1 133.0 17.1 133.0 17.1 133.0
1960-12-03 06:00:00 18.1 132.9 18.0 132.8 18.0 132.8 18.0 132.8 18.1 132.9 18.1 132.9
1960-12-03 12:00:00 19.0 132.6 18.9 132.5 18.9 132.5 19.0 132.6 19.0 132.6 19.0 132.6
jtwc_wp tokyo cma td9636 td9635 ds824_wp
1960-12-03 18:00:00 20.0 132.5 19.8 132.3 19.8 132.4 19.8 132.3 20.0 132.5 20.0 132.5
1960-12-04 00:00:00 20.9 132.5 21.2 132.6 21.2 132.6 20.9 132.5 20.9 132.5 20.9 132.5
1960-12-04 06:00:00 22.6 133.7 22.6 133.7 22.6 133.7 22.4 133.6 22.6 133.7 22.6 133.7
1960-12-04 12:00:00 24.3 135.5 24.8 135.9 24.8 135.9 24.3 135.5 24.3 135.5 24.3 135.5
1960-12-04 18:00:00 26.5 137.8 27.0 138.4 27.0 138.4 26.4 137.6 26.5 137.8 26.5 137.8
1960-12-05 00:00:00 29.1 140.7 29.0 140.7 29.0 140.7 29.1 140.7 29.1 140.7 29.1 140.7
1960-12-05 06:00:00 32.6 145.0 32.0 144.4 32.0 144.4 33.2 145.3 32.6 145.0 32.6 145.0
1960-12-05 12:00:00 37.0 150.9 36.0 150.0 36.0 150.0 37.0 150.9 37.0 150.9 37.0 150.9
1960-12-05 18:00:00 39.4 156.2 39.0 156.5 39.0 156.5 39.2 156.6 39.4 156.2 39.4 156.2
1960-12-06 00:00:00 40.3 162.3 40.0 162.2 40.0 162.2 40.3 162.3 40.3 162.3 40.3 162.3
1960-12-06 06:00:00 41.1 169.3 40.0 169.0 40.0 169.0 41.1 169.3 41.1 169.3
1960-12-06 12:00:00 42.5 177.4 41.0 176.0 41.0 176.0 42.5 177.4
1960-12-06 18:00:00 42.0 -175.0 41.0 184.0 42.0 185.0
1960-12-07 00:00:00 41.8 -169.0 41.8 191.0
1960-12-07 06:00:00 40.8 -163.0 40.8 197.0
1960-12-07 12:00:00 41.0 -160.0 41.0 200.0
1960-12-07 18:00:00 41.5 -156.0 41.5 204.0
1960-12-08 00:00:00 43.0 -152.0 43.0 208.0
1960-12-08 06:00:00 45.5 -149.0 45.5 211.0
1960-12-08 12:00:00 47.8 -146.0 47.8 214.0
1960-12-08 18:00:00 50.2 -146.5 52.0 213.5

top of pageTrack Data:Intensity

jtwc_wp tokyo cma td9636 td9635 ds824_wp
Date Wind Pres Wind Pres Wind Pres Wind Pres Wind Pres Wind Pres
1960-11-21 12:00:00 20. 20. 20. 1001. 20.
1960-11-21 18:00:00 20. 20. 20. 1001. 20.
1960-11-22 00:00:00 20. 20. 20. 1001. 20.
1960-11-22 06:00:00 15. 20. 15. 1001. 15.
1960-11-22 12:00:00 15. 15. 15. 1000. 15.
1960-11-22 18:00:00 20. 15. 20. 998. 20.
1960-11-23 00:00:00 20. 20. 20. 998. 20.
1960-11-23 06:00:00 20. 20. 20. 999. 20.
1960-11-23 12:00:00 20. 20. 20. 999. 20.
1960-11-23 18:00:00 20. 20. 20. 1000. 20.
1960-11-24 00:00:00 15. 15. 15. 1001. 15.
1960-11-24 06:00:00 15. 15. 15. 1002. 15.
1960-11-24 12:00:00 15. 15. 15. 1003. 15.
1960-11-24 18:00:00 15. 15. 15. 1004. 15.
1960-11-25 00:00:00 15. 1006. 19. 1006. 15. 15. 1004. 15.
1960-11-25 06:00:00 15. 1003. 19. 1006. 15. 15. 1003. 15.
1960-11-25 12:00:00 15. 1005. 19. 1005. 15. 15. 1003. 15.
1960-11-25 18:00:00 15. 1002. 23. 1002. 15. 15. 1002. 15.
1960-11-26 00:00:00 20. 1003. 23. 1002. 20. 20. 1001. 20.
1960-11-26 06:00:00 20. 1002. 23. 1002. 20. 20. 1001. 20.
1960-11-26 12:00:00 20. 1002. 23. 1002. 20. 20. 1000. 20.
1960-11-26 18:00:00 20. 1000. 29. 1000. 20. 20. 998. 20.
1960-11-27 00:00:00 25. 1000. 29. 1000. 25. 25. 992. 25.
1960-11-27 06:00:00 30. 1000. 29. 1000. 25. 32. 985. 30.
1960-11-27 12:00:00 30. 1000. 29. 998. 32. 32. 985. 30.
jtwc_wp tokyo cma td9636 td9635 ds824_wp
1960-11-27 18:00:00 40. 1000. 39. 996. 32. 40. 990. 40.
1960-11-28 00:00:00 45. 995. 39. 995. 45. 45. 994. 45.
1960-11-28 06:00:00 50. 995. 39. 995. 45. 52. 995. 50.
1960-11-28 12:00:00 55. 990. 49. 990. 55. 55. 989. 55.
1960-11-28 18:00:00 60. 980. 58. 983. 55. 60. 980. 60.
1960-11-29 00:00:00 65. 975. 68. 976. 65. 65. 972. 65.
1960-11-29 06:00:00 75. 970. 78. 969. 65. 75. 966. 75.
1960-11-29 12:00:00 80. 965. 97. 962. 80. 80. 960. 80.
1960-11-29 18:00:00 110. 955. 117. 955. 80. 110. 954. 110.
1960-11-30 00:00:00 120. 950. 126. 948. 122. 122. 948. 120.
1960-11-30 06:00:00 125. 945. 126. 942. 122. 125. 939. 125.
1960-11-30 12:00:00 130. 940. 126. 940. 128. 128. 937. 130.
1960-11-30 18:00:00 130. 940. 136. 938. 128. 130. 938. 130.
1960-12-01 00:00:00 130. 935. 136. 935. 132. 132. 936. 130.
1960-12-01 06:00:00 135. 935. 136. 935. 132. 135. 939. 135.
1960-12-01 12:00:00 130. 940. 136. 939. 130. 130. 943. 130.
1960-12-01 18:00:00 125. 940. 126. 942. 130. 125. 944. 125.
1960-12-02 00:00:00 125. 940. 117. 944. 125. 125. 943. 125.
1960-12-02 06:00:00 125. 940. 117. 939. 125. 125. 937. 125.
1960-12-02 12:00:00 125. 940. 117. 938. 125. 125. 934. 125.
1960-12-02 18:00:00 125. 940. 126. 934. 125. 125. 932. 125.
1960-12-03 00:00:00 130. 935. 136. 930. 130. 130. 930. 130.
1960-12-03 06:00:00 130. 925. 146. 925. 130. 130. 928. 130.
1960-12-03 12:00:00 130. 925. 146. 927. 130. 130. 929. 130.
jtwc_wp tokyo cma td9636 td9635 ds824_wp
1960-12-03 18:00:00 130. 930. 136. 929. 130. 130. 929. 130.
1960-12-04 00:00:00 130. 935. 136. 931. 130. 130. 930. 130.
1960-12-04 06:00:00 130. 935. 136. 935. 130. 130. 939. 130.
1960-12-04 12:00:00 120. 940. 126. 945. 120. 120. 950. 120.
1960-12-04 18:00:00 110. 950. 117. 955. 120. 108. 957. 110.
1960-12-05 00:00:00 90. 965. 107. 965. 92. 92. 967. 90.
1960-12-05 06:00:00 80. 975. 97. 975. 92. 78. 978. 80.
1960-12-05 12:00:00 70. 975. 97. 975. 70. 70. 985. 70.
1960-12-05 18:00:00 70. 975. 97. 975. 70. 68. 989. 70.
1960-12-06 00:00:00 60. 975. 87. 975. 62. 62. 993. 60.
1960-12-06 06:00:00 60. 978. 78. 978. 60. 995. 60.
1960-12-06 12:00:00 50. 986. 986. 50.
1960-12-06 18:00:00 50. 984. 50.
1960-12-07 00:00:00 50. 50.
1960-12-07 06:00:00 45. 45.
1960-12-07 12:00:00 45. 45.
1960-12-07 18:00:00 50. 50.
1960-12-08 00:00:00 55. 55.
1960-12-08 06:00:00 60. 60.
1960-12-08 12:00:00 60. 60.
1960-12-08 18:00:00 50. 50.

top of page Links to source data

Source Source file Format
jtwc_wp bwp261960.txt ATCF
tokyo bst_all.txt:Line=8528:OPHELIA:6026 JMA text table
cma CH1960BST.txt:Storm=39:Ophelia CMA text table
td9636 cons_worldwide_trop_cyclone_18710101-19891231-003:Line=18873 TD 9636
td9635 typhoons-analogs_19450101-19761231.corrected:Line=13608 TD 9635
ds824_wp w_npac.dat:354:OPHELIA HURDAT